Time;durP1;ratioP1;P1;durP2;ratioP2;P2;SDS_P1;SDS_P2;PMS_P1;PMS_P2;Temp;Humidity;BMP_temperature;BMP_pressure;BME280_temperature;BME280_humidity;BME280_pressure;Samples;Min_cycle;Max_cycle;Signal;HPM_P1;HPM_P2
2022/07/31 00:00:26;;;;;;;0.00;0.00;;;16.20;99.90;14.90;96214.00;;;;5062759;28;20569;-71
2022/07/31 00:02:54;;;;;;;0.00;0.00;;;16.20;99.90;14.90;96221.00;;;;5073719;28;20198;-71
2022/07/31 00:05:23;;;;;;;0.00;0.00;;;16.10;99.90;14.80;96247.00;;;;5079915;28;20651;-72
2022/07/31 00:07:53;;;;;;;0.00;0.00;;;16.10;99.90;14.80;96307.00;;;;5066063;28;20206;-72
2022/07/31 00:10:22;;;;;;;0.00;0.00;;;16.10;99.90;14.70;96215.00;;;;5061933;28;20194;-71
2022/07/31 00:12:50;;;;;;;0.00;0.00;;;16.00;99.90;14.80;96352.00;;;;5072849;28;20224;-70
2022/07/31 00:15:19;;;;;;;0.00;0.00;;;16.00;99.90;14.80;96408.00;;;;5089963;28;20585;-71
2022/07/31 00:17:49;;;;;;;0.00;0.00;;;16.10;99.90;14.80;96317.00;;;;5087728;28;20186;-70
2022/07/31 00:20:18;;;;;;;0.00;0.00;;;16.10;99.90;14.90;96404.00;;;;5073819;28;20256;-70
2022/07/31 00:22:49;;;;;;;0.00;0.00;;;16.10;99.90;14.80;96320.00;;;;5052298;28;20198;-70
2022/07/31 00:25:18;;;;;;;0.00;0.00;;;16.10;99.90;14.70;96196.00;;;;5074716;28;20221;-71
2022/07/31 00:27:47;;;;;;;0.00;0.00;;;16.00;99.90;14.70;96296.00;;;;5093571;28;20204;-71
2022/07/31 00:30:16;;;;;;;0.00;0.00;;;16.00;99.90;14.70;96289.00;;;;5068916;28;20186;-70
2022/07/31 00:32:44;;;;;;;0.00;0.00;;;16.00;99.90;14.70;96284.00;;;;5063010;28;20595;-70
2022/07/31 00:35:15;;;;;;;0.00;0.00;;;16.00;99.90;14.70;96282.00;;;;5060066;28;20286;-71
2022/07/31 00:37:44;;;;;;;0.00;0.00;;;16.00;99.90;14.70;96358.00;;;;5055066;28;20201;-70
2022/07/31 00:40:15;;;;;;;0.00;0.00;;;16.00;99.90;14.60;96282.00;;;;5060182;28;20194;-70
2022/07/31 00:42:44;;;;;;;0.00;0.00;;;15.90;99.90;14.50;96271.00;;;;5036582;28;20206;-70
2022/07/31 00:45:12;;;;;;;0.00;0.00;;;15.80;99.90;14.50;96277.00;;;;5051893;28;20815;-70
2022/07/31 00:47:41;;;;;;;0.00;0.00;;;15.80;99.90;14.50;96294.00;;;;5051378;28;20217;-70
2022/07/31 00:50:10;;;;;;;0.00;0.00;;;15.80;99.90;14.60;96308.00;;;;5063151;28;20202;-70
2022/07/31 00:52:39;;;;;;;0.00;0.00;;;15.90;99.90;14.50;96252.00;;;;5087149;28;20193;-70
2022/07/31 00:55:09;;;;;;;0.00;0.00;;;15.80;99.90;14.40;96255.00;;;;5084445;28;20225;-70
2022/07/31 00:57:37;;;;;;;0.00;0.00;;;15.80;99.90;14.50;96271.00;;;;5068692;28;20204;-73
2022/07/31 01:00:07;;;;;;;0.00;0.00;;;15.90;99.90;14.50;96271.00;;;;5072480;28;20193;-72
2022/07/31 01:02:37;;;;;;;0.00;0.00;;;15.80;99.90;14.40;96266.00;;;;5073216;28;20197;-70
2022/07/31 01:05:14;;;;;;;0.00;0.00;;;15.80;99.90;14.20;96249.00;;;;5055089;28;20241;-70
2022/07/31 01:07:43;;;;;;;0.00;0.00;;;15.50;99.90;14.10;96203.00;;;;5039552;28;20673;-70
2022/07/31 01:10:21;;;;;;;0.00;0.00;;;15.40;99.90;14.00;96212.00;;;;5041986;28;20198;-70
2022/07/31 01:12:56;;;;;;;0.00;0.00;;;15.30;99.90;14.10;96144.00;;;;5066548;28;20197;-71
2022/07/31 01:15:27;;;;;;;0.10;0.10;;;15.40;99.90;14.20;96231.00;;;;5063661;28;20232;-70
2022/07/31 01:17:57;;;;;;;0.00;0.00;;;15.60;99.90;14.20;96278.00;;;;5091006;28;20193;-70
2022/07/31 01:20:27;;;;;;;0.00;0.00;;;15.50;99.90;14.10;96260.00;;;;5064868;28;20208;-71
2022/07/31 01:23:21;;;;;;;0.00;0.00;;;15.40;99.90;14.10;96289.00;;;;5051036;28;20698;-71
2022/07/31 01:26:40;;;;;;;0.00;0.00;;;15.40;99.90;14.10;96283.00;;;;5002510;28;20261;-71
2022/07/31 01:29:20;;;;;;;0.00;0.00;;;15.40;99.90;14.00;96202.00;;;;5054528;28;20206;-71
2022/07/31 01:31:57;;;;;;;0.00;0.00;;;15.30;99.90;13.90;96197.00;;;;5068606;28;20197;-71
2022/07/31 01:34:36;;;;;;;0.00;0.00;;;15.30;99.90;13.90;96219.00;;;;5055388;28;20663;-71
2022/07/31 01:37:15;;;;;;;0.10;0.10;;;15.30;99.90;13.90;96223.00;;;;5053744;28;20271;-71
2022/07/31 01:39:51;;;;;;;0.05;0.05;;;15.20;99.90;13.90;96271.00;;;;5053885;28;20193;-73
2022/07/31 01:42:22;;;;;;;0.00;0.00;;;15.20;99.90;13.90;96228.00;;;;5069017;28;20197;-72
2022/07/31 01:44:59;;;;;;;0.00;0.00;;;15.30;99.90;13.80;96193.00;;;;5052107;28;20232;-73
2022/07/31 01:47:30;;;;;;;0.05;0.05;;;15.20;99.90;13.70;96190.00;;;;5076096;28;20277;-73
2022/07/31 01:50:03;;;;;;;0.00;0.00;;;15.00;99.90;13.70;96297.00;;;;5062783;28;20205;-72
2022/07/31 01:52:34;;;;;;;0.00;0.00;;;15.00;99.90;13.70;96201.00;;;;5061738;28;20284;-73
2022/07/31 01:55:04;;;;;;;0.10;0.10;;;15.00;99.90;13.70;96191.00;;;;5057666;28;20320;-72
2022/07/31 01:57:34;;;;;;;0.00;0.00;;;15.00;99.90;13.70;96165.00;;;;5053922;28;20197;-72
2022/07/31 02:00:09;;;;;;;0.00;0.00;;;15.00;99.90;13.60;96175.00;;;;5064791;28;20233;-71
2022/07/31 02:02:59;;;;;;;0.00;0.00;;;15.10;99.90;13.60;96150.00;;;;5086161;28;20198;-70
2022/07/31 02:05:41;;;;;;;0.00;0.00;;;15.00;99.90;13.60;96158.00;;;;5057868;28;20220;-70
2022/07/31 02:08:12;;;;;;;0.05;0.05;;;15.00;99.90;13.60;96136.00;;;;5050345;28;20593;-70
2022/07/31 02:10:46;;;;;;;0.03;0.03;;;15.00;99.90;13.60;96189.00;;;;5057710;28;20204;-71
2022/07/31 02:13:16;;;;;;;0.10;0.10;;;15.00;99.90;13.60;96175.00;;;;5074477;28;20741;-70
2022/07/31 02:15:47;;;;;;;0.00;0.00;;;14.80;99.90;13.50;96136.00;;;;5051326;28;20718;-71
2022/07/31 02:18:21;;;;;;;0.00;0.00;;;14.80;99.90;13.50;96083.00;;;;5036364;28;20225;-70
2022/07/31 02:21:05;;;;;;;0.05;0.05;;;14.80;99.90;13.50;96131.00;;;;5060779;28;20266;-71
2022/07/31 02:23:34;;;;;;;0.00;0.00;;;14.80;99.90;13.40;96090.00;;;;5051576;28;20202;-71
2022/07/31 02:26:07;;;;;;;0.00;0.00;;;14.70;99.90;13.30;96132.00;;;;5053127;28;20309;-70
2022/07/31 02:28:37;;;;;;;0.00;0.00;;;14.70;99.90;13.30;96109.00;;;;5054473;28;20212;-70
2022/07/31 02:31:12;;;;;;;0.00;0.00;;;14.60;99.90;13.30;96097.00;;;;5078732;28;20201;-70
2022/07/31 02:33:46;;;;;;;0.10;0.10;;;14.50;99.90;13.20;96124.00;;;;5053376;28;20270;-71
2022/07/31 02:36:19;;;;;;;0.10;0.10;;;14.50;99.90;13.30;96239.00;;;;5053624;28;20225;-70
2022/07/31 02:38:50;;;;;;;0.00;0.00;;;14.50;99.90;13.30;96173.00;;;;5052351;28;20212;-70
2022/07/31 02:41:21;;;;;;;0.10;0.10;;;14.60;99.90;13.30;96163.00;;;;5075453;28;20204;-70
2022/07/31 02:43:50;;;;;;;0.10;0.10;;;14.50;99.90;13.30;96153.00;;;;5071132;28;20186;-70
2022/07/31 02:46:23;;;;;;;0.00;0.00;;;14.60;99.90;13.30;96199.00;;;;5086018;23;20252;-73
2022/07/31 02:48:52;;;;;;;0.10;0.10;;;14.60;99.90;13.30;96222.00;;;;5091628;28;20203;-73
2022/07/31 02:51:23;;;;;;;0.05;0.05;;;14.60;99.90;13.30;96208.00;;;;5083154;28;20287;-73
2022/07/31 02:53:52;;;;;;;0.00;0.00;;;14.70;99.90;13.40;96219.00;;;;5082418;28;20205;-73
2022/07/31 02:56:25;;;;;;;0.00;0.00;;;14.80;99.90;13.50;96246.00;;;;5062696;28;20228;-74
2022/07/31 02:58:54;;;;;;;0.00;0.00;;;14.80;99.90;13.40;96236.00;;;;5052856;28;20734;-73
2022/07/31 03:01:28;;;;;;;0.00;0.00;;;14.70;99.90;13.40;96185.00;;;;5086356;28;20723;-73
2022/07/31 03:03:56;;;;;;;0.00;0.00;;;14.70;99.90;13.50;96193.00;;;;5062180;28;20236;-73
2022/07/31 03:06:24;;;;;;;0.10;0.10;;;14.80;99.90;13.50;96219.00;;;;5066394;28;20225;-73
2022/07/31 03:08:52;;;;;;;0.00;0.00;;;14.90;99.90;13.50;96217.00;;;;5077888;28;20208;-73
2022/07/31 03:11:23;;;;;;;0.00;0.00;;;14.80;99.90;13.30;96171.00;;;;5066650;28;20625;-73
2022/07/31 03:13:55;;;;;;;0.00;0.00;;;14.70;99.90;13.20;96201.00;;;;5066288;28;20201;-73
2022/07/31 03:16:25;;;;;;;0.10;0.10;;;14.60;99.90;13.20;96140.00;;;;5070607;28;20217;-73
2022/07/31 03:18:56;;;;;;;0.10;0.10;;;14.60;99.90;13.20;96153.00;;;;5066596;28;20646;-74
2022/07/31 03:21:25;;;;;;;0.10;0.10;;;14.50;99.90;13.10;96154.00;;;;5065884;28;20216;-74
2022/07/31 03:23:54;;;;;;;0.10;0.10;;;14.40;99.90;13.00;96120.00;;;;5063095;28;20329;-73
2022/07/31 03:26:23;;;;;;;0.05;0.05;;;14.30;99.90;13.00;96136.00;;;;5052590;28;20217;-74
2022/07/31 03:28:51;;;;;;;0.00;0.00;;;14.30;99.90;13.00;96140.00;;;;5068652;28;20201;-76
2022/07/31 03:31:20;;;;;;;0.00;0.00;;;14.30;99.90;12.90;96119.00;;;;5033407;28;20206;-75
2022/07/31 03:33:48;;;;;;;0.00;0.00;;;14.30;99.90;13.00;96132.00;;;;5057533;28;20206;-76
2022/07/31 03:36:18;;;;;;;0.00;0.00;;;14.30;99.90;13.10;96157.00;;;;5069132;28;20229;-73
2022/07/31 03:38:46;;;;;;;0.10;0.10;;;14.50;99.90;13.20;96138.00;;;;5051831;28;20212;-73
2022/07/31 03:41:37;;;;;;;0.00;0.00;;;14.50;99.90;13.10;96146.00;;;;5056283;28;20264;-74
2022/07/31 03:44:05;;;;;;;0.00;0.00;;;14.50;99.90;13.10;96142.00;;;;5062807;28;20661;-73
2022/07/31 03:46:34;;;;;;;0.08;0.08;;;14.50;99.90;13.00;96188.00;;;;5056155;28;20236;-74
2022/07/31 03:49:03;;;;;;;0.10;0.10;;;14.40;99.90;13.00;96161.00;;;;5070351;28;20209;-73
2022/07/31 03:51:33;;;;;;;0.00;0.00;;;14.40;99.90;13.10;96198.00;;;;5045465;28;20619;-73
2022/07/31 03:54:01;;;;;;;0.10;0.10;;;14.50;99.90;13.10;96157.00;;;;5054133;28;20201;-73
2022/07/31 03:56:52;;;;;;;0.10;0.10;;;14.50;99.90;13.20;96193.00;;;;5053204;28;20226;-73
2022/07/31 03:59:22;;;;;;;0.10;0.10;;;14.50;99.90;13.30;96250.00;;;;5046778;28;20301;-74
2022/07/31 04:01:50;;;;;;;0.00;0.00;;;14.60;99.90;13.20;96235.00;;;;5073652;28;20190;-73
2022/07/31 04:04:48;;;;;;;0.00;0.00;;;14.50;99.90;13.20;96095.00;;;;5049696;28;20208;-73
2022/07/31 04:07:18;;;;;;;0.00;0.00;;;14.60;99.90;13.10;96109.00;;;;5073474;28;20637;-73
2022/07/31 04:09:46;;;;;;;0.10;0.10;;;14.50;99.90;13.20;96145.00;;;;5055264;28;20214;-74
2022/07/31 04:12:16;;;;;;;0.10;0.10;;;14.60;99.90;13.10;96111.00;;;;5062143;28;20210;-73
2022/07/31 04:14:44;;;;;;;0.00;0.00;;;14.50;99.90;13.10;96103.00;;;;5067625;28;20194;-73
2022/07/31 04:17:12;;;;;;;0.00;0.00;;;14.50;99.90;13.10;96091.00;;;;5072793;28;20225;-74
2022/07/31 04:19:40;;;;;;;0.00;0.00;;;14.40;99.90;13.00;96077.00;;;;5055451;28;20217;-73
2022/07/31 04:22:09;;;;;;;0.00;0.00;;;14.40;99.90;13.10;96013.00;;;;5072358;28;20201;-73
2022/07/31 04:24:39;;;;;;;0.10;0.10;;;14.50;99.90;13.10;96053.00;;;;5055247;28;20193;-74
2022/07/31 04:27:25;;;;;;;0.00;0.00;;;14.50;99.90;13.20;96033.00;;;;5073231;28;20306;-73
2022/07/31 04:29:55;;;;;;;0.10;0.10;;;14.60;99.90;13.10;96005.00;;;;5057316;28;20197;-75
2022/07/31 04:32:23;;;;;;;0.00;0.00;;;14.50;99.90;13.20;96006.00;;;;5073405;28;20190;-73
2022/07/31 04:35:01;;;;;;;0.00;0.00;;;14.60;99.90;13.20;96034.00;;;;5075901;28;20198;-75
2022/07/31 04:37:30;;;;;;;0.05;0.05;;;14.60;99.90;13.20;96112.00;;;;5066029;28;20730;-74
2022/07/31 04:40:00;;;;;;;0.00;0.00;;;14.60;99.90;13.30;96106.00;;;;5071414;28;20190;-75
2022/07/31 04:42:28;;;;;;;0.00;0.00;;;14.70;99.90;13.30;96134.00;;;;5055283;28;20252;-73
2022/07/31 04:45:00;;;;;;;0.10;0.10;;;14.70;99.90;13.40;96126.00;;;;5062709;28;20205;-73
2022/07/31 04:47:28;;;;;;;0.00;0.00;;;14.80;99.90;13.40;96123.00;;;;5059335;28;20239;-74
2022/07/31 04:49:57;;;;;;;0.00;0.00;;;14.80;99.90;13.40;96148.00;;;;5076286;28;20259;-74
2022/07/31 04:52:26;;;;;;;0.00;0.00;;;14.80;99.90;13.50;96115.00;;;;5072750;28;20252;-74
2022/07/31 04:54:58;;;;;;;0.10;0.10;;;14.90;99.90;13.60;96132.00;;;;5068488;28;20202;-74
2022/07/31 04:57:27;;;;;;;0.10;0.10;;;14.90;99.90;13.40;96088.00;;;;5065382;28;20228;-74
2022/07/31 04:59:55;;;;;;;0.00;0.00;;;14.90;99.90;13.50;96136.00;;;;5070970;28;20216;-74
2022/07/31 05:02:27;;;;;;;0.03;0.03;;;14.90;99.90;13.60;96143.00;;;;5069900;28;20197;-74
2022/07/31 05:04:56;;;;;;;0.10;0.10;;;14.90;99.90;13.70;96149.00;;;;5051106;28;20763;-74
2022/07/31 05:07:31;;;;;;;0.00;0.00;;;15.00;99.90;13.70;96101.00;;;;5055789;28;20220;-74
2022/07/31 05:10:05;;;;;;;0.00;0.00;;;15.00;99.90;13.80;96194.00;;;;5059025;28;20411;-74
2022/07/31 05:12:35;;;;;;;0.00;0.00;;;15.10;99.90;13.90;96178.00;;;;5055139;28;20280;-73
2022/07/31 05:15:04;;;;;;;0.00;0.00;;;15.10;99.90;13.90;96133.00;;;;5071778;28;20202;-74
2022/07/31 05:17:32;;;;;;;0.00;0.00;;;15.10;99.90;13.90;96116.00;;;;5070833;28;20226;-74
2022/07/31 05:20:19;;;;;;;0.00;0.00;;;15.20;99.90;14.00;96152.00;;;;5068711;28;20220;-73
2022/07/31 05:23:05;;;;;;;0.00;0.00;;;15.30;99.90;14.10;96158.00;;;;5054750;28;20197;-74
2022/07/31 05:25:53;;;;;;;0.10;0.10;;;15.40;99.90;14.20;96134.00;;;;5064140;28;20576;-74
2022/07/31 05:28:22;;;;;;;0.00;0.00;;;15.50;99.90;14.40;96145.00;;;;5070952;28;20197;-74
2022/07/31 05:30:57;;;;;;;0.08;0.08;;;15.50;99.90;14.40;96141.00;;;;5071087;28;20200;-73
2022/07/31 05:33:27;;;;;;;0.00;0.00;;;15.60;99.90;14.60;96133.00;;;;5054244;28;20292;-75
2022/07/31 05:35:56;;;;;;;0.00;0.00;;;15.80;99.90;14.70;96176.00;;;;5067174;28;20696;-73
2022/07/31 05:38:25;;;;;;;0.00;0.00;;;15.90;99.90;14.90;96144.00;;;;5058620;28;20222;-73
2022/07/31 05:41:15;;;;;;;0.00;0.00;;;16.10;99.90;14.90;96178.00;;;;5071204;28;20213;-73
2022/07/31 05:44:01;;;;;;;0.00;0.00;;;16.10;99.90;15.00;96161.00;;;;5052503;28;20212;-74
2022/07/31 05:46:34;;;;;;;0.00;0.00;;;16.20;99.90;15.10;96172.00;;;;5068992;28;20316;-73
2022/07/31 05:49:02;;;;;;;0.00;0.00;;;16.30;99.90;15.20;96184.00;;;;5070597;28;20217;-74
2022/07/31 05:51:30;;;;;;;0.00;0.00;;;16.40;99.90;15.30;96208.00;;;;5070491;28;20285;-73
2022/07/31 05:53:59;;;;;;;0.00;0.00;;;16.50;99.90;15.40;96196.00;;;;5080785;28;20204;-74
2022/07/31 05:56:47;;;;;;;0.00;0.00;;;16.60;99.90;15.30;96278.00;;;;5072844;28;20220;-73
2022/07/31 05:59:19;;;;;;;0.00;0.00;;;16.70;99.90;15.60;96222.00;;;;5053892;28;20281;-74
2022/07/31 06:01:47;;;;;;;0.00;0.00;;;16.70;99.90;15.70;96241.00;;;;5034908;28;20198;-74
2022/07/31 06:04:15;;;;;;;0.00;0.00;;;16.80;99.90;15.70;96222.00;;;;5056614;28;20285;-73
2022/07/31 06:06:45;;;;;;;0.00;0.00;;;16.80;99.90;15.70;96286.00;;;;5083542;28;20240;-74
2022/07/31 06:09:13;;;;;;;0.00;0.00;;;16.90;99.90;15.70;96383.00;;;;5072027;28;20198;-73
2022/07/31 06:11:44;;;;;;;0.00;0.00;;;16.90;99.90;15.70;96329.00;;;;5054181;28;20276;-74
2022/07/31 06:14:14;;;;;;;0.03;0.03;;;16.90;99.90;15.80;96292.00;;;;5054445;28;20206;-73
2022/07/31 06:17:09;;;;;;;0.00;0.00;;;16.90;99.90;15.80;96303.00;;;;5064493;28;20225;-73
2022/07/31 06:19:38;;;;;;;0.00;0.00;;;16.90;99.90;15.90;96345.00;;;;5050188;28;20205;-74
2022/07/31 06:22:06;;;;;;;0.00;0.00;;;17.00;99.90;15.90;96358.00;;;;5070194;28;20229;-73
2022/07/31 06:24:37;;;;;;;0.00;0.00;;;17.00;99.90;16.00;96283.00;;;;5081710;28;20227;-74
2022/07/31 06:27:09;;;;;;;0.00;0.00;;;17.10;99.90;16.10;96282.00;;;;5050027;28;20230;-73
2022/07/31 06:29:59;;;;;;;0.00;0.00;;;17.20;99.90;16.10;96303.00;;;;5058116;28;20664;-73
2022/07/31 06:32:27;;;;;;;0.00;0.00;;;17.30;99.90;16.20;96301.00;;;;5069497;28;20213;-74
2022/07/31 06:34:55;;;;;;;0.00;0.00;;;17.30;99.90;16.20;96324.00;;;;5069308;28;20201;-73
2022/07/31 06:37:24;;;;;;;0.00;0.00;;;17.40;99.90;16.30;96320.00;;;;5053103;28;20312;-74
2022/07/31 06:39:53;;;;;;;0.00;0.00;;;17.40;99.90;16.40;96335.00;;;;5052570;28;20650;-73
2022/07/31 06:42:55;;;;;;;0.00;0.00;;;17.50;99.90;16.60;96342.00;;;;5070756;28;20201;-73
2022/07/31 06:45:43;;;;;;;0.00;0.00;;;17.70;99.90;16.60;96327.00;;;;5070992;28;20735;-74
2022/07/31 06:48:39;;;;;;;0.00;0.00;;;17.70;99.90;16.60;96336.00;;;;5070715;28;20210;-74
2022/07/31 06:51:12;;;;;;;0.00;0.00;;;17.70;99.90;16.70;96329.00;;;;5053093;28;20224;-73
2022/07/31 06:54:02;;;;;;;0.00;0.00;;;17.70;99.90;16.80;96361.00;;;;5067983;28;20198;-74
2022/07/31 06:56:31;;;;;;;0.00;0.00;;;17.90;99.90;16.90;96371.00;;;;5043136;28;20240;-73
2022/07/31 06:59:00;;;;;;;0.00;0.00;;;18.00;99.90;16.90;96318.00;;;;5052655;28;20233;-73
2022/07/31 07:01:29;;;;;;;0.00;0.00;;;18.00;99.90;17.00;96374.00;;;;5054847;28;20309;-73
2022/07/31 07:03:58;;;;;;;0.00;0.00;;;18.10;99.90;17.10;96300.00;;;;5050008;28;20256;-73
2022/07/31 07:06:26;;;;;;;0.00;0.00;;;18.10;99.90;17.10;96290.00;;;;5068502;28;20206;-74
2022/07/31 07:08:54;;;;;;;0.00;0.00;;;18.20;99.90;17.20;96287.00;;;;5069156;28;20228;-73
2022/07/31 07:11:23;;;;;;;0.00;0.00;;;18.30;99.90;17.30;96308.00;;;;5069615;28;20198;-73
2022/07/31 07:13:51;;;;;;;0.00;0.00;;;18.40;99.90;17.30;96322.00;;;;5052609;28;20202;-73
2022/07/31 07:16:20;;;;;;;0.10;0.10;;;18.50;99.90;17.50;96293.00;;;;5069658;28;20267;-74
2022/07/31 07:18:49;;;;;;;0.00;0.00;;;18.60;99.90;17.60;96280.00;;;;5069323;28;20316;-74
2022/07/31 07:21:17;;;;;;;0.00;0.00;;;18.70;99.90;17.70;96305.00;;;;5060129;28;20197;-74
2022/07/31 07:23:46;;;;;;;0.00;0.00;;;18.70;99.90;17.80;96331.00;;;;5071817;28;20575;-74
2022/07/31 07:26:34;;;;;;;0.00;0.00;;;18.80;99.90;17.90;96350.00;;;;5043262;28;20260;-74
2022/07/31 07:29:03;;;;;;;0.00;0.00;;;18.90;99.90;17.90;96342.00;;;;5072576;28;20259;-74
2022/07/31 07:31:31;;;;;;;0.00;0.00;;;19.00;99.90;18.00;96327.00;;;;5074059;28;20277;-74
2022/07/31 07:34:05;;;;;;;0.00;0.00;;;19.10;99.90;18.10;96313.00;;;;5089786;28;20221;-75
2022/07/31 07:36:33;;;;;;;0.00;0.00;;;19.10;99.90;18.20;96314.00;;;;5059581;28;20300;-74
2022/07/31 07:39:09;;;;;;;0.00;0.00;;;19.30;99.90;18.40;96314.00;;;;5054228;28;20701;-73
2022/07/31 07:41:38;;;;;;;0.00;0.00;;;19.50;99.90;18.50;96316.00;;;;5072922;28;20194;-75
2022/07/31 07:44:06;;;;;;;0.00;0.00;;;19.50;99.90;18.60;96307.00;;;;5077128;28;20209;-74
2022/07/31 07:46:35;;;;;;;0.00;0.00;;;19.60;99.90;18.70;96316.00;;;;5075102;28;20225;-74
2022/07/31 07:49:05;;;;;;;0.00;0.00;;;19.70;99.90;18.80;96325.00;;;;5056775;28;20690;-74
2022/07/31 07:51:44;;;;;;;0.00;0.00;;;19.80;99.90;19.00;96334.00;;;;5056032;28;20197;-75
2022/07/31 07:54:33;;;;;;;0.00;0.00;;;20.00;99.90;19.20;96332.00;;;;5075418;28;20201;-74
2022/07/31 07:57:04;;;;;;;0.00;0.00;;;20.10;99.90;19.30;96348.00;;;;5074969;28;20279;-74
2022/07/31 08:00:10;;;;;;;0.00;0.00;;;20.30;99.90;19.40;96346.00;;;;5074902;28;20624;-74
2022/07/31 08:02:45;;;;;;;0.00;0.00;;;20.40;99.90;19.50;96362.00;;;;5076759;28;20277;-74
2022/07/31 08:05:39;;;;;;;0.00;0.00;;;20.50;99.90;19.70;96389.00;;;;5077669;28;20245;-74
2022/07/31 08:08:07;;;;;;;0.00;0.00;;;20.60;99.90;19.80;96397.00;;;;5061312;28;20569;-74
2022/07/31 08:11:00;;;;;;;0.00;0.00;;;20.80;99.90;19.90;96406.00;;;;5077389;28;20208;-74
2022/07/31 08:13:37;;;;;;;0.00;0.00;;;20.80;99.90;20.00;96396.00;;;;5077437;28;20197;-74
2022/07/31 08:16:26;;;;;;;0.00;0.00;;;20.90;99.90;20.10;96396.00;;;;5079797;28;20205;-75
2022/07/31 08:18:57;;;;;;;0.00;0.00;;;21.10;99.90;20.20;96427.00;;;;5082001;28;20262;-76
2022/07/31 08:21:27;;;;;;;0.00;0.00;;;21.10;99.90;20.30;96422.00;;;;5062357;28;20186;-76
2022/07/31 08:23:55;;;;;;;0.00;0.00;;;21.30;99.90;20.40;96437.00;;;;5079323;28;20173;-76
2022/07/31 08:26:23;;;;;;;0.00;0.00;;;21.40;99.90;20.40;96439.00;;;;5098626;28;20225;-76
2022/07/31 08:28:54;;;;;;;0.00;0.00;;;21.30;99.90;20.60;96463.00;;;;5088298;28;20197;-74
2022/07/31 08:31:25;;;;;;;0.00;0.00;;;21.40;99.90;20.70;96461.00;;;;5045043;28;20199;-75
2022/07/31 08:34:25;;;;;;;0.00;0.00;;;21.60;99.90;20.90;96438.00;;;;5064388;28;20752;-74
2022/07/31 08:37:05;;;;;;;0.00;0.00;;;21.70;99.90;20.90;96411.00;;;;5056561;28;20221;-74
2022/07/31 08:39:54;;;;;;;0.00;0.00;;;21.80;99.90;20.90;96393.00;;;;5054918;28;20206;-74
2022/07/31 08:42:24;;;;;;;0.00;0.00;;;21.80;99.90;21.00;96375.00;;;;5046474;28;20704;-74
2022/07/31 08:44:53;;;;;;;0.00;0.00;;;22.00;99.90;21.20;96392.00;;;;5063277;28;20197;-74
2022/07/31 08:47:27;;;;;;;0.00;0.00;;;22.10;99.90;21.50;96401.00;;;;5083783;22;20225;-73
2022/07/31 08:50:01;;;;;;;0.00;0.00;;;22.30;99.90;21.30;96402.00;;;;5064057;28;20304;-73
2022/07/31 08:52:33;;;;;;;0.00;0.00;;;22.20;99.90;21.40;96357.00;;;;5065692;28;20196;-73
2022/07/31 08:55:08;;;;;;;0.00;0.00;;;22.30;99.90;21.70;96529.00;;;;5059895;28;20200;-73
2022/07/31 08:57:36;;;;;;;0.00;0.00;;;22.50;99.90;21.80;96548.00;;;;5054257;28;20677;-73
2022/07/31 09:00:07;;;;;;;0.00;0.00;;;22.70;99.90;22.00;96519.00;;;;5056641;28;20235;-73
2022/07/31 09:02:35;;;;;;;0.00;0.00;;;22.80;99.90;21.90;96486.00;;;;5034561;28;20207;-73
2022/07/31 09:05:23;;;;;;;0.00;0.00;;;22.80;99.90;22.20;96516.00;;;;5044310;28;20226;-73
2022/07/31 09:07:55;;;;;;;0.00;0.00;;;23.00;99.90;22.20;96503.00;;;;5056028;28;20226;-73
2022/07/31 09:10:26;;;;;;;0.00;0.00;;;23.00;99.90;22.30;96544.00;;;;5040678;28;20199;-73
2022/07/31 09:12:55;;;;;;;0.00;0.00;;;23.20;99.90;22.60;96492.00;;;;5033216;28;20677;-73
2022/07/31 09:15:29;;;;;;;0.00;0.00;;;23.40;99.90;22.90;96480.00;;;;5035784;28;20280;-73
2022/07/31 09:18:01;;;;;;;0.00;0.00;;;23.70;99.90;23.00;96543.00;;;;5040224;28;20202;-73
2022/07/31 09:20:30;;;;;;;0.00;0.00;;;23.80;99.90;23.10;96457.00;;;;5053293;28;20538;-73
2022/07/31 09:23:08;;;;;;;0.00;0.00;;;23.90;99.90;23.40;96477.00;;;;5049976;28;20201;-73
2022/07/31 09:25:53;;;;;;;0.00;0.00;;;24.10;99.90;23.60;96506.00;;;;5042563;28;20727;-73
2022/07/31 09:28:31;;;;;;;0.00;0.00;;;24.30;99.90;23.50;96560.00;;;;5072780;28;20209;-73
2022/07/31 09:30:59;;;;;;;0.00;0.00;;;24.30;99.90;23.80;96550.00;;;;5040556;28;20199;-74
2022/07/31 09:33:57;;;;;;;0.00;0.00;;;24.60;99.90;24.10;96552.00;;;;5048994;28;20491;-74
2022/07/31 09:36:40;;;;;;;0.00;0.00;;;24.80;99.90;24.40;96553.00;;;;5064480;28;20222;-74
2022/07/31 09:39:37;;;;;;;0.00;0.00;;;25.00;99.90;24.60;96585.00;;;;5050905;28;20219;-74
2022/07/31 09:42:48;;;;;;;0.00;0.00;;;25.20;99.90;24.60;96562.00;;;;5064341;28;20202;-74
2022/07/31 09:45:24;;;;;;;0.00;0.00;;;25.30;99.90;24.70;96538.00;;;;5029213;28;20238;-74
2022/07/31 09:48:11;;;;;;;0.00;0.00;;;25.50;99.90;25.00;96528.00;;;;5041893;28;20696;-74
2022/07/31 09:50:54;;;;;;;0.00;0.00;;;25.70;99.90;25.20;96508.00;;;;5041921;28;20202;-74
2022/07/31 09:53:23;;;;;;;0.00;0.00;;;25.80;98.60;25.40;96504.00;;;;5075017;28;20236;-74
2022/07/31 09:56:02;;;;;;;0.00;0.00;;;26.00;98.70;25.20;96498.00;;;;5051389;28;20247;-74
2022/07/31 09:58:30;;;;;;;0.00;0.00;;;25.90;98.60;25.10;96493.00;;;;5074520;28;20208;-74
2022/07/31 10:00:59;;;;;;;0.00;0.00;;;26.00;99.10;25.40;96512.00;;;;5077252;28;20225;-75
2022/07/31 10:03:29;;;;;;;0.00;0.00;;;26.10;98.70;25.30;96503.00;;;;5060397;28;20212;-74
2022/07/31 10:05:59;;;;;;;0.00;0.00;;;26.20;98.50;25.00;96492.00;;;;5065732;28;20593;-74
2022/07/31 10:08:28;;;;;;;0.00;0.00;;;26.00;99.30;25.10;96494.00;;;;5056784;28;20198;-74
2022/07/31 10:11:21;;;;;;;0.00;0.00;;;25.90;98.50;25.10;96510.00;;;;5059043;28;20228;-74
2022/07/31 10:14:00;;;;;;;0.00;0.00;;;25.80;98.70;24.70;96522.00;;;;5031841;28;20256;-74
2022/07/31 10:16:36;;;;;;;0.00;0.00;;;25.80;97.70;24.90;96556.00;;;;5058368;28;20752;-74
2022/07/31 10:19:24;;;;;;;0.00;0.00;;;25.80;98.00;25.20;96610.00;;;;5061792;28;20193;-74
2022/07/31 10:22:17;;;;;;;0.00;0.00;;;25.80;98.00;24.90;96533.00;;;;5067522;28;20225;-74
2022/07/31 10:24:52;;;;;;;0.00;0.00;;;25.70;98.10;25.00;96550.00;;;;5066842;28;20205;-74
2022/07/31 10:27:22;;;;;;;0.00;0.00;;;25.80;97.90;24.90;96606.00;;;;5052820;28;20218;-74
2022/07/31 10:30:01;;;;;;;0.00;0.00;;;25.80;97.20;25.50;96545.00;;;;5052900;28;20214;-74
2022/07/31 10:32:29;;;;;;;0.00;0.00;;;26.10;97.10;25.60;96563.00;;;;5063677;28;20198;-75
2022/07/31 10:35:16;;;;;;;0.00;0.00;;;26.30;96.60;25.60;96640.00;;;;5052697;28;20708;-75
2022/07/31 10:38:10;;;;;;;0.00;0.00;;;26.30;96.80;25.40;96605.00;;;;5043052;28;20191;-74
2022/07/31 10:41:02;;;;;;;0.00;0.00;;;26.00;97.00;25.00;96622.00;;;;5048481;28;20575;-74
2022/07/31 10:43:52;;;;;;;0.00;0.00;;;25.80;97.10;24.70;96585.00;;;;5038510;28;20240;-74
2022/07/31 10:46:49;;;;;;;0.00;0.00;;;25.70;97.20;24.80;96592.00;;;;5045892;28;20229;-74
2022/07/31 10:49:39;;;;;;;0.00;0.00;;;25.50;97.40;24.80;96548.00;;;;5029507;28;20217;-74
2022/07/31 10:52:31;;;;;;;0.00;0.00;;;25.60;97.30;24.70;96583.00;;;;5043037;28;20221;-74
2022/07/31 10:55:21;;;;;;;0.00;0.00;;;25.60;97.30;24.60;96591.00;;;;5053771;28;20626;-74
2022/07/31 10:58:10;;;;;;;0.00;0.00;;;25.50;97.30;24.80;96508.00;;;;5050749;28;20277;-74
2022/07/31 11:01:10;;;;;;;0.00;0.00;;;25.50;97.60;24.90;96473.00;;;;5050633;28;21101;-74
2022/07/31 11:04:04;;;;;;;0.00;0.00;;;25.70;96.90;24.90;96471.00;;;;5033216;28;20672;-74
2022/07/31 11:06:49;;;;;;;0.00;0.00;;;25.70;96.90;25.00;96450.00;;;;5057506;28;20723;-74
2022/07/31 11:09:35;;;;;;;0.00;0.00;;;25.80;96.80;25.00;96468.00;;;;5064312;28;20288;-74
2022/07/31 11:12:41;;;;;;;0.00;0.00;;;25.80;96.00;24.90;96470.00;;;;5039832;28;20205;-74
2022/07/31 11:15:36;;;;;;;0.00;0.00;;;25.80;96.60;25.20;96469.00;;;;5027069;28;20203;-74
2022/07/31 11:18:24;;;;;;;0.00;0.00;;;26.00;97.20;25.40;96488.00;;;;5036597;28;20194;-74
2022/07/31 11:21:07;;;;;;;0.00;0.00;;;26.10;97.70;25.30;96494.00;;;;5058393;28;20221;-74
2022/07/31 11:23:56;;;;;;;0.00;0.00;;;26.10;97.70;25.20;96489.00;;;;5052400;28;20220;-74
2022/07/31 11:26:31;;;;;;;0.00;0.00;;;26.00;97.50;25.30;96521.00;;;;5050081;28;20221;-74
2022/07/31 11:29:09;;;;;;;0.00;0.00;;;26.10;97.50;25.60;96547.00;;;;5031319;28;20549;-74